Flight Track Log - Related Links

Times and Time Zones

All times are in EDT time to prevent confusion due to time zone crossing. See the UAL109 flight status page for this flight to view local times or setup timezone preferences in your user account.

Time Position Orientation Groundspeed Altitude Reporting Facility
EDT Latitude Longitude Course Direction KTS MPH feet Rate Location/Type
Wed 02:29:00 PM 55.9760 -3.5841 282° West  Level Estimated
Wed 02:30:00 PM 56.0017 -3.7959 282° West  Level Estimated
Wed 02:31:00 PM 56.0269 -4.0080 282° West  Level Estimated
Wed 02:32:00 PM 56.0519 -4.2204 282° West  Level Estimated
Wed 02:33:00 PM 56.0764 -4.4331 282° West  Level Estimated
Wed 02:34:00 PM 56.1006 -4.6460 282° West  Level Estimated
Wed 02:35:00 PM 56.1244 -4.8592 281° West  Level Estimated
Wed 02:36:00 PM 56.1479 -5.0727 281° West  Level Estimated
Wed 02:37:00 PM 56.1710 -5.2864 281° West  Level Estimated
Wed 02:38:00 PM 56.1937 -5.5004 281° West  Level Estimated
Wed 02:39:00 PM 56.2160 -5.7146 281° West  Level Estimated
Wed 02:40:00 PM 56.2380 -5.9291 281° West  Level Estimated
Wed 02:41:00 PM 56.2596 -6.1438 280° West  Level Estimated
Wed 02:42:00 PM 56.2808 -6.3588 280° West  Level Estimated
Wed 02:43:00 PM 56.3017 -6.5740 280° West  Level Estimated
Wed 02:44:00 PM 56.3222 -6.7894 280° West  Level Estimated
Wed 02:45:00 PM 56.3423 -7.0051 280° West  Level Estimated
Wed 02:46:00 PM 56.3620 -7.2210 279° West  Level Estimated
Wed 02:47:00 PM 56.3814 -7.4371 279° West  Level Estimated
Wed 02:48:00 PM 56.4004 -7.6534 279° West  Level Estimated
Wed 02:49:00 PM 56.4190 -7.8699 279° West  Level Estimated
Wed 02:50:00 PM 56.4372 -8.0867 279° West  Level Estimated
Wed 02:51:00 PM 56.4551 -8.3036 279° West  Level Estimated
Wed 02:52:00 PM 56.4725 -8.5208 278° West  Level Estimated
Wed 02:53:00 PM 56.4896 -8.7381 278° West  Level Estimated
Wed 02:54:00 PM 56.5063 -8.9557 278° West  Level Estimated
Wed 02:55:00 PM 56.5227 -9.1734 278° West  Level Estimated
Wed 02:56:00 PM 56.5386 -9.3913 278° West  Level Estimated
Wed 02:57:00 PM 56.5542 -9.6094 277° West  Level Estimated
Wed 02:58:00 PM 56.5694 -9.8277 277° West  Level Estimated
Wed 02:59:00 PM 56.5842 -10.0462 277° West  Level Estimated
Wed 03:00:00 PM 56.5986 -10.2648 277° West  Level Estimated
Wed 03:01:00 PM 56.6126 -10.4836 277° West  Level Estimated
Wed 03:02:00 PM 56.6263 -10.7025 277° West  Level Estimated
Wed 03:03:00 PM 56.6396 -10.9216 276° West  Level Estimated
Wed 03:04:00 PM 56.6525 -11.1409 276° West  Level Estimated
Wed 03:05:00 PM 56.6650 -11.3603 276° West  Level Estimated
Wed 03:06:00 PM 56.6771 -11.5798 276° West  Level Estimated
Wed 03:07:00 PM 56.6888 -11.7995 276° West  Level Estimated
Wed 03:08:00 PM 56.7001 -12.0194 275° West  Level Estimated
Wed 03:09:00 PM 56.7111 -12.2393 275° West  Level Estimated
Wed 03:10:00 PM 56.7217 -12.4594 275° West  Level Estimated
Wed 03:11:00 PM 56.7318 -12.6796 275° West  Level Estimated
Wed 03:12:00 PM 56.7416 -12.8999 275° West  Level Estimated
Wed 03:13:00 PM 56.7510 -13.1203 275° West  Level Estimated
Wed 03:14:00 PM 56.7600 -13.3409 274° West  Level Estimated
Wed 03:15:00 PM 56.7687 -13.5615 274° West  Level Estimated
Wed 03:16:00 PM 56.7769 -13.7823 274° West  Level Estimated
Wed 03:17:00 PM 56.7847 -14.0031 274° West  Level Estimated
Wed 03:18:00 PM 56.7922 -14.2240 274° West  Level Estimated
Wed 03:19:00 PM 56.7992 -14.4450 273° West  Level Estimated
Wed 03:20:00 PM 56.8059 -14.6661 273° West  Level Estimated
Wed 03:21:00 PM 56.8122 -14.8873 273° West  Level Estimated
Wed 03:22:00 PM 56.8181 -15.1085 273° West  Level Estimated
Wed 03:23:00 PM 56.8236 -15.3298 273° West  Level Estimated
Wed 03:24:00 PM 56.8287 -15.5512 273° West  Level Estimated
Wed 03:25:00 PM 56.8334 -15.7726 272° West  Level Estimated
Wed 03:26:00 PM 56.8377 -15.9941 272° West  Level Estimated
Wed 03:27:00 PM 56.8416 -16.2156 272° West  Level Estimated
Wed 03:28:00 PM 56.8452 -16.4372 272° West  Level Estimated
Wed 03:29:00 PM 56.8483 -16.6588 272° West  Level Estimated
Wed 03:30:00 PM 56.8511 -16.8805 271° West  Level Estimated
Wed 03:31:00 PM 56.8535 -17.1021 271° West  Level Estimated
Wed 03:32:00 PM 56.8554 -17.3238 271° West  Level Estimated
Wed 03:33:00 PM 56.8570 -17.5456 271° West  Level Estimated
Wed 03:34:00 PM 56.8582 -17.7673 271° West  Level Estimated
Wed 03:35:00 PM 56.8590 -17.9890 270° West  Level Estimated
Wed 03:36:00 PM 56.8594 -18.2108 270° West  Level Estimated
Wed 03:37:00 PM 56.8594 -18.4326 270° West  Level Estimated
Wed 03:38:00 PM 56.8590 -18.6543 270° West  Level Estimated
Wed 03:39:00 PM 56.8582 -18.8761 270° West  Level Estimated
Wed 03:40:00 PM 56.8570 -19.0978 270° West  Level Estimated
Wed 03:41:00 PM 56.8555 -19.3195 269° West  Level Estimated
Wed 03:42:00 PM 56.8535 -19.5413 269° West  Level Estimated
Wed 03:43:00 PM 56.8512 -19.7629 269° West  Level Estimated
Wed 03:44:00 PM 56.8484 -19.9846 269° West  Level Estimated
Wed 03:45:00 PM 56.8453 -20.2062 269° West  Level Estimated
Wed 03:46:00 PM 56.8417 -20.4278 268° West  Level Estimated
Wed 03:47:00 PM 56.8378 -20.6493 268° West  Level Estimated
Wed 03:48:00 PM 56.8335 -20.8708 268° West  Level Estimated
Wed 03:49:00 PM 56.8288 -21.0922 268° West  Level Estimated
Wed 03:50:00 PM 56.8237 -21.3136 268° West  Level Estimated
Wed 03:51:00 PM 56.8182 -21.5349 267° West  Level Estimated
Wed 03:52:00 PM 56.8123 -21.7561 267° West  Level Estimated
Wed 03:53:00 PM 56.8060 -21.9773 267° West  Level Estimated
Wed 03:54:00 PM 56.7994 -22.1984 267° West  Level Estimated
Wed 03:55:00 PM 56.7923 -22.4194 267° West  Level Estimated
Wed 03:56:00 PM 56.7849 -22.6403 267° West  Level Estimated
Wed 03:57:00 PM 56.7770 -22.8612 266° West  Level Estimated
Wed 03:58:00 PM 56.7688 -23.0819 266° West  Level Estimated
Wed 03:59:00 PM 56.7602 -23.3025 266° West  Level Estimated
Wed 04:00:00 PM 56.7512 -23.5231 266° West  Level Estimated
Wed 04:01:00 PM 56.7418 -23.7435 266° West  Level Estimated
Wed 04:02:00 PM 56.7320 -23.9638 265° West  Level Estimated
Wed 04:03:00 PM 56.7218 -24.1840 265° West  Level Estimated
Wed 04:04:00 PM 56.7113 -24.4041 265° West  Level Estimated
Wed 04:05:00 PM 56.7003 -24.6241 265° West  Level Estimated
Wed 04:06:00 PM 56.6890 -24.8439 265° West  Level Estimated
Wed 04:07:00 PM 56.6773 -25.0636 265° West  Level Estimated
Wed 04:08:00 PM 56.6652 -25.2831 264° West  Level Estimated
Wed 04:09:00 PM 56.6527 -25.5025 264° West  Level Estimated
Wed 04:10:00 PM 56.6398 -25.7218 264° West  Level Estimated
Wed 04:11:00 PM 56.6265 -25.9409 264° West  Level Estimated
Wed 04:12:00 PM 56.6129 -26.1598 264° West  Level Estimated
Wed 04:13:00 PM 56.5989 -26.3786 263° West  Level Estimated
Wed 04:14:00 PM 56.5844 -26.5973 263° West  Level Estimated
Wed 04:15:00 PM 56.5696 -26.8157 263° West  Level Estimated
Wed 04:16:00 PM 56.5545 -27.0340 263° West  Level Estimated
Wed 04:17:00 PM 56.5389 -27.2521 263° West  Level Estimated
Wed 04:18:00 PM 56.5229 -27.4701 263° West  Level Estimated
Wed 04:19:00 PM 56.5066 -27.6878 262° West  Level Estimated
Wed 04:20:00 PM 56.4899 -27.9053 262° West  Level Estimated
Wed 04:21:00 PM 56.4728 -28.1227 262° West  Level Estimated
Wed 04:22:00 PM 56.4553 -28.3399 262° West  Level Estimated
Wed 04:23:00 PM 56.4375 -28.5568 262° West  Level Estimated
Wed 04:24:00 PM 56.4193 -28.7736 261° West  Level Estimated
Wed 04:25:00 PM 56.4007 -28.9901 261° West  Level Estimated
Wed 04:26:00 PM 56.3817 -29.2064 261° West  Level Estimated
Wed 04:27:00 PM 56.3624 -29.4226 261° West  Level Estimated
Wed 04:28:00 PM 56.3426 -29.6384 261° West  Level Estimated
Wed 04:29:00 PM 56.3225 -29.8541 261° West  Level Estimated
Wed 04:30:00 PM 56.3020 -30.0695 260° West  Level Estimated
Wed 04:31:00 PM 56.2812 -30.2847 260° West  Level Estimated
Wed 04:32:00 PM 56.2600 -30.4997 260° West  Level Estimated
Wed 04:33:00 PM 56.2384 -30.7144 260° West  Level Estimated
Wed 04:34:00 PM 56.2164 -30.9289 260° West  Level Estimated
Wed 04:35:00 PM 56.1941 -31.1431 259° West  Level Estimated
Wed 04:36:00 PM 56.1713 -31.3571 259° West  Level Estimated
Wed 04:37:00 PM 56.1483 -31.5708 259° West  Level Estimated
Wed 04:38:00 PM 56.1248 -31.7843 259° West  Level Estimated
Wed 04:39:00 PM 56.1010 -31.9975 259° West  Level Estimated
Wed 04:40:00 PM 56.0768 -32.2105 259° West  Level Estimated
Wed 04:41:00 PM 56.0523 -32.4231 258° West  Level Estimated
Wed 04:42:00 PM 56.0274 -32.6355 258° West  Level Estimated
Wed 04:43:00 PM 56.0021 -32.8476 258° West  Level Estimated
Wed 04:44:00 PM 55.9765 -33.0595 258° West  Level Estimated
Wed 04:45:00 PM 55.9505 -33.2710 258° West  Level Estimated
Wed 04:46:00 PM 55.9241 -33.4823 258° West  Level Estimated
Wed 04:47:00 PM 55.8974 -33.6933 257° West  Level Estimated
Wed 04:48:00 PM 55.8703 -33.9040 257° West  Level Estimated
Wed 04:49:00 PM 55.8428 -34.1144 257° West  Level Estimated
Wed 04:50:00 PM 55.8150 -34.3245 257° West  Level Estimated
Wed 04:51:00 PM 55.7869 -34.5343 257° West  Level Estimated
Wed 04:52:00 PM 55.7583 -34.7438 256° West  Level Estimated
Wed 04:53:00 PM 55.7295 -34.9530 256° West  Level Estimated
Wed 04:54:00 PM 55.7002 -35.1618 256° West  Level Estimated
Wed 04:55:00 PM 55.6707 -35.3704 256° West  Level Estimated
Wed 04:56:00 PM 55.6407 -35.5786 256° West  Level Estimated
Wed 04:57:00 PM 55.6104 -35.7866 256° West  Level Estimated
Wed 04:58:00 PM 55.5798 -35.9942 255° West  Level Estimated
Wed 04:59:00 PM 55.5488 -36.2014 255° West  Level Estimated
Wed 05:00:00 PM 55.5175 -36.4084 255° West  Level Estimated
Wed 05:01:00 PM 55.4858 -36.6150 255° West  Level Estimated
Wed 05:02:00 PM 55.4537 -36.8213 255° West  Level Estimated
Wed 05:03:00 PM 55.4214 -37.0272 255° West  Level Estimated
Wed 05:04:00 PM 55.3886 -37.2328 254° West  Level Estimated
Wed 05:05:00 PM 55.3556 -37.4381 254° West  Level Estimated
Wed 05:06:00 PM 55.3222 -37.6430 254° West  Level Estimated
Wed 05:07:00 PM 55.2884 -37.8475 254° West  Level Estimated
Wed 05:08:00 PM 55.2543 -38.0518 254° West  Level Estimated
Wed 05:09:00 PM 55.2198 -38.2556 254° West  Level Estimated
Wed 05:10:00 PM 55.1851 -38.4592 253° West  Level Estimated
Wed 05:11:00 PM 55.1500 -38.6623 253° West  Level Estimated
Wed 05:12:00 PM 55.1145 -38.8651 253° West  Level Estimated
Wed 05:13:00 PM 55.0787 -39.0676 253° West  Level Estimated
Wed 05:14:00 PM 55.0426 -39.2696 253° West  Level Estimated
Wed 05:15:00 PM 55.0061 -39.4713 253° West  Level Estimated
Wed 05:16:00 PM 54.9693 -39.6727 252° West  Level Estimated
Wed 05:17:00 PM 54.9322 -39.8736 252° West  Level Estimated
Wed 05:18:00 PM 54.8948 -40.0742 252° West  Level Estimated
Wed 05:19:00 PM 54.8570 -40.2745 252° West  Level Estimated
Wed 05:20:00 PM 54.8189 -40.4743 252° West  Level Estimated
Wed 05:21:00 PM 54.7804 -40.6738 252° West  Level Estimated
Wed 05:22:00 PM 54.7417 -40.8729 251° West  Level Estimated
Wed 05:23:00 PM 54.7026 -41.0716 251° West  Level Estimated
Wed 05:24:00 PM 54.6632 -41.2699 251° West  Level Estimated
Wed 05:25:00 PM 54.6234 -41.4678 251° West  Level Estimated
Wed 05:26:00 PM 54.5834 -41.6654 251° West  Level Estimated
Wed 05:27:00 PM 54.5430 -41.8626 251° West  Level Estimated
Wed 05:28:00 PM 54.5023 -42.0593 250° West  Level Estimated
Wed 05:29:00 PM 54.4613 -42.2557 250° West  Level Estimated
Wed 05:30:00 PM 54.4199 -42.4517 250° West  Level Estimated
Wed 05:31:00 PM 54.3783 -42.6473 250° West  Level Estimated
Wed 05:32:00 PM 54.3363 -42.8424 250° West  Level Estimated
Wed 05:33:00 PM 54.2940 -43.0372 250° West  Level Estimated
Wed 05:34:00 PM 54.2514 -43.2316 250° West  Level Estimated
Wed 05:35:00 PM 54.2085 -43.4256 249° West  Level Estimated
Wed 05:36:00 PM 54.1653 -43.6192 249° West  Level Estimated
Wed 05:37:00 PM 54.1218 -43.8124 249° West  Level Estimated
Wed 05:38:00 PM 54.0779 -44.0051 249° West  Level Estimated
Wed 05:39:00 PM 54.0338 -44.1975 249° West  Level Estimated
Wed 05:40:00 PM 53.9893 -44.3894 249° West  Level Estimated
Wed 05:41:00 PM 53.9446 -44.5810 248° West  Level Estimated
Wed 05:42:00 PM 53.8995 -44.7721 248° West  Level Estimated
Wed 05:43:00 PM 53.8541 -44.9628 248° West  Level Estimated
Wed 05:44:00 PM 53.8085 -45.1531 248° West  Level Estimated
Wed 05:45:00 PM 53.7625 -45.3430 248° West  Level Estimated
Wed 05:46:00 PM 53.7162 -45.5325 248° West  Level Estimated
Wed 05:47:00 PM 53.6697 -45.7215 247° West  Level Estimated
Wed 05:48:00 PM 53.6228 -45.9101 247° West  Level Estimated
Wed 05:49:00 PM 53.5757 -46.0984 247° West  Level Estimated
Wed 05:50:00 PM 53.5282 -46.2861 247° West  Level Estimated
Wed 05:51:00 PM 53.4805 -46.4735 247° West  Level Estimated
Wed 05:52:00 PM 53.4324 -46.6604 247° West  Level Estimated
Wed 05:53:00 PM 53.3841 -46.8470 247° West  Level Estimated
Wed 05:54:00 PM 53.3355 -47.0331 246° West  Level Estimated
Wed 05:55:00 PM 53.2866 -47.2187 246° West  Level Estimated
Wed 05:56:00 PM 53.2374 -47.4040 246° West  Level Estimated
Wed 05:57:00 PM 53.1879 -47.5888 246° West  Level Estimated
Wed 05:58:00 PM 53.1381 -47.7732 246° West  Level Estimated
Wed 05:59:00 PM 53.0881 -47.9572 246° West  Level Estimated
Wed 06:00:00 PM 53.0377 -48.1407 246° West  Level Estimated
Wed 06:01:00 PM 52.9871 -48.3238 245° Southwest  Level Estimated
Wed 06:02:00 PM 52.9362 -48.5065 245° Southwest  Level Estimated
Wed 06:03:00 PM 52.8850 -48.6887 245° Southwest  Level Estimated
Wed 06:04:00 PM 52.8336 -48.8706 245° Southwest  Level Estimated
Wed 06:05:00 PM 52.7818 -49.0519 245° Southwest  Level Estimated
Wed 06:06:00 PM 52.7298 -49.2329 245° Southwest  Level Estimated
Wed 06:07:00 PM 52.6775 -49.4134 245° Southwest  Level Estimated
Wed 06:08:00 PM 52.6250 -49.5935 244° Southwest  Level Estimated
Wed 06:09:00 PM 52.5722 -49.7732 244° Southwest  Level Estimated
Wed 06:10:00 PM 52.5191 -49.9524 244° Southwest  Level Estimated
Wed 06:11:00 PM 52.4657 -50.1312 244° Southwest  Level Estimated
Wed 06:12:00 PM 52.4120 -50.3095 244° Southwest  Level Estimated
Wed 06:13:00 PM 52.3581 -50.4874 244° Southwest  Level Estimated
Wed 06:14:00 PM 52.3040 -50.6649 244° Southwest  Level Estimated
Wed 06:15:00 PM 52.2495 -50.8420 243° Southwest  Level Estimated
Wed 06:16:00 PM 52.1948 -51.0186 243° Southwest  Level Estimated
Wed 06:17:00 PM 52.1399 -51.1948 243° Southwest  Level Estimated
Wed 06:18:00 PM 52.0846 -51.3705 243° Southwest  Level Estimated
Wed 06:19:00 PM 52.0291 -51.5458 243° Southwest  Level Estimated
Wed 06:20:00 PM 51.9734 -51.7207 243° Southwest  Level Estimated
Wed 06:21:00 PM 51.9174 -51.8951 243° Southwest  Level Estimated
Wed 06:22:00 PM 51.8611 -52.0691 242° Southwest  Level Estimated
Wed 06:23:00 PM 51.8046 -52.2427 242° Southwest  Level Estimated
Wed 06:24:00 PM 51.7478 -52.4158 242° Southwest  Level Estimated
Wed 06:25:00 PM 51.6908 -52.5885 242° Southwest  Level Estimated
Wed 06:26:00 PM 51.6335 -52.7608 242° Southwest  Level Estimated
Wed 06:27:00 PM 51.5760 -52.9326 242° Southwest  Level Estimated
Wed 06:28:00 PM 51.5182 -53.1040 242° Southwest  Level Estimated
Wed 06:29:00 PM 51.4602 -53.2749 241° Southwest  Level Estimated
Wed 06:30:00 PM 51.4019 -53.4454 241° Southwest  Level Estimated
Wed 06:31:00 PM 51.3434 -53.6155 241° Southwest  Level Estimated
Wed 06:32:00 PM 51.2846 -53.7852 241° Southwest  Level Estimated
Wed 06:33:00 PM 51.2256 -53.9544 241° Southwest  Level Estimated
Wed 06:34:00 PM 51.1663 -54.1232 241° Southwest  Level Estimated
Wed 06:35:00 PM 51.1068 -54.2915 241° Southwest  Level Estimated
Wed 06:36:00 PM 51.0471 -54.4594 241° Southwest  Level Estimated
Wed 06:37:00 PM 50.9871 -54.6269 240° Southwest  Level Estimated
Wed 06:38:00 PM 50.9269 -54.7939 240° Southwest  Level Estimated
Wed 06:39:00 PM 50.8664 -54.9605 240° Southwest  Level Estimated
Wed 06:40:00 PM 50.8057 -55.1267 240° Southwest  Level Estimated
Wed 06:41:00 PM 50.7448 -55.2925 240° Southwest  Level Estimated
Wed 06:42:00 PM 50.6836 -55.4578 240° Southwest  Level Estimated
Wed 06:43:00 PM 50.6222 -55.6227 240° Southwest  Level Estimated
Wed 06:44:00 PM 50.5606 -55.7871 240° Southwest  Level Estimated
Wed 06:45:00 PM 50.4987 -55.9511 239° Southwest  Level Estimated
Wed 06:46:00 PM 50.4366 -56.1147 239° Southwest  Level Estimated
Wed 06:47:00 PM 50.3743 -56.2779 239° Southwest  Level Estimated
Wed 06:48:00 PM 50.3118 -56.4406 239° Southwest  Level Estimated
Wed 06:49:00 PM 50.2490 -56.6029 239° Southwest  Level Estimated
Wed 06:50:00 PM 50.1860 -56.7648 239° Southwest  Level Estimated
Wed 06:51:00 PM 50.1228 -56.9263 239° Southwest  Level Estimated
Wed 06:52:00 PM 50.0593 -57.0873 239° Southwest  Level Estimated
Wed 06:53:00 PM 49.9957 -57.2479 238° Southwest  Level Estimated
Wed 06:54:00 PM 49.9318 -57.4081 238° Southwest  Level Estimated
Wed 06:55:00 PM 49.8676 -57.5678 238° Southwest  Level Estimated
Wed 06:56:00 PM 49.8033 -57.7271 238° Southwest  Level Estimated
Wed 06:57:00 PM 49.7388 -57.8860 238° Southwest  Level Estimated
Wed 06:58:00 PM 49.6740 -58.0445 238° Southwest  Level Estimated
Wed 06:59:00 PM 49.6090 -58.2026 238° Southwest  Level Estimated
Wed 07:00:00 PM 49.5438 -58.3602 238° Southwest  Level Estimated
Wed 07:01:00 PM 49.4784 -58.5174 237° Southwest  Level Estimated
Wed 07:02:00 PM 49.4128 -58.6742 237° Southwest  Level Estimated
Wed 07:03:00 PM 49.3470 -58.8306 237° Southwest  Level Estimated
Wed 07:04:00 PM 49.2809 -58.9865 237° Southwest  Level Estimated
Wed 07:05:00 PM 49.2147 -59.1421 237° Southwest  Level Estimated
Wed 07:06:00 PM 49.1482 -59.2972 237° Southwest  Level Estimated
Wed 07:07:00 PM 49.0816 -59.4519 237° Southwest  Level Estimated
Wed 07:08:00 PM 49.0147 -59.6062 237° Southwest  Level Estimated
Wed 07:09:00 PM 48.9476 -59.7600 236° Southwest  Level Estimated
Wed 07:10:00 PM 48.8803 -59.9135 236° Southwest  Level Estimated
Wed 07:11:00 PM 48.8128 -60.0666 236° Southwest  Level Estimated
Wed 07:12:00 PM 48.7452 -60.2192 236° Southwest  Level Estimated
Wed 07:13:00 PM 48.6773 -60.3714 236° Southwest  Level Estimated
Wed 07:14:00 PM 48.6092 -60.5232 236° Southwest  Level Estimated
Wed 07:15:00 PM 48.5409 -60.6746 236° Southwest  Level Estimated
Wed 07:16:00 PM 48.4724 -60.8256 236° Southwest  Level Estimated
Wed 07:17:00 PM 48.4037 -60.9762 236° Southwest  Level Estimated
Wed 07:18:00 PM 48.3348 -61.1264 235° Southwest  Level Estimated
Wed 07:19:00 PM 48.2658 -61.2762 235° Southwest  Level Estimated
Wed 07:20:00 PM 48.1965 -61.4255 235° Southwest  Level Estimated
Wed 07:21:00 PM 48.1270 -61.5745 235° Southwest  Level Estimated
Wed 07:22:00 PM 48.0574 -61.7231 235° Southwest  Level Estimated
Wed 07:23:00 PM 47.9875 -61.8712 235° Southwest  Level Estimated
Wed 07:24:00 PM 47.9175 -62.0190 235° Southwest  Level Estimated
Wed 07:25:00 PM 47.8473 -62.1664 235° Southwest  Level Estimated
Wed 07:26:00 PM 47.7769 -62.3133 235° Southwest  Level Estimated
Wed 07:27:00 PM 47.7063 -62.4599 234° Southwest  Level Estimated
Wed 07:28:00 PM 47.6355 -62.6060 234° Southwest  Level Estimated
Wed 07:29:00 PM 47.5645 -62.7518 234° Southwest  Level Estimated
Wed 07:30:00 PM 47.4934 -62.8972 234° Southwest  Level Estimated
Wed 07:31:00 PM 47.4220 -63.0422 234° Southwest  Level Estimated
Wed 07:32:00 PM 47.3505 -63.1868 234° Southwest  Level Estimated
Wed 07:33:00 PM 47.2788 -63.3310 234° Southwest  Level Estimated
Wed 07:34:00 PM 47.2069 -63.4748 234° Southwest  Level Estimated
Wed 07:35:00 PM 47.1349 -63.6182 234° Southwest  Level Estimated
Wed 07:36:00 PM 47.0626 -63.7612 233° Southwest  Level Estimated
Wed 07:37:00 PM 46.9902 -63.9039 233° Southwest  Level Estimated
Wed 07:38:00 PM 46.9176 -64.0461 233° Southwest  Level Estimated
Wed 07:39:00 PM 46.8449 -64.1880 233° Southwest  Level Estimated
Wed 07:40:00 PM 46.7719 -64.3295 233° Southwest  Level Estimated
Wed 07:41:00 PM 46.6988 -64.4706 233° Southwest  Level Estimated
Wed 07:42:00 PM 46.6255 -64.6113 233° Southwest  Level Estimated
Wed 07:43:00 PM 46.5521 -64.7516 233° Southwest  Level Estimated
Wed 07:44:00 PM 46.4784 -64.8916 233° Southwest  Level Estimated
Wed 07:45:00 PM 46.4046 -65.0312 233° Southwest  Level Estimated
Wed 07:46:00 PM 46.3307 -65.1704 232° Southwest  Level Estimated
Wed 07:47:00 PM 46.2565 -65.3092 232° Southwest  Level Estimated
Wed 07:48:00 PM 46.1822 -65.4476 232° Southwest  Level Estimated
Wed 07:49:00 PM 46.1077 -65.5857 232° Southwest  Level Estimated
Wed 07:50:00 PM 46.0331 -65.7234 232° Southwest  Level Estimated
Wed 07:51:00 PM 45.9583 -65.8607 232° Southwest  Level Estimated
Wed 07:52:00 PM 45.8833 -65.9977 232° Southwest  Level Estimated
Wed 07:53:00 PM 45.8082 -66.1343 232° Southwest  Level Estimated
Wed 07:54:00 PM 45.7329 -66.2705 232° Southwest  Level Estimated
Wed 07:55:00 PM 45.6574 -66.4064 232° Southwest  Level Estimated
Wed 07:56:00 PM 45.5818 -66.5419 231° Southwest  Level Estimated
Wed 07:57:00 PM 45.5060 -66.6770 231° Southwest  Level Estimated
Wed 07:58:00 PM 45.4301 -66.8117 231° Southwest  Level Estimated
Wed 07:59:00 PM 45.3540 -66.9461 231° Southwest  Level Estimated
Wed 08:00:00 PM 45.2777 -67.0802 231° Southwest  Level Estimated
Wed 08:01:00 PM 45.2013 -67.2139 231° Southwest  Level Estimated
Wed 08:02:00 PM 45.1247 -67.3472 231° Southwest  Level Estimated
Wed 08:03:00 PM 45.0480 -67.4801 231° Southwest  Level Estimated
Wed 08:04:00 PM 44.9712 -67.6127 231° Southwest  Level Estimated
Wed 08:05:00 PM 44.8941 -67.7450 231° Southwest  Level Estimated
Wed 08:06:00 PM 44.8170 -67.8769 231° Southwest  Level Estimated
Wed 08:07:00 PM 44.7396 -68.0084 230° Southwest  Level Estimated
Wed 08:08:00 PM 44.6621 -68.1396 230° Southwest  Level Estimated
Wed 08:09:00 PM 44.5845 -68.2704 230° Southwest  Level Estimated
Wed 08:10:00 PM 44.5067 -68.4009 230° Southwest  Level Estimated
Wed 08:11:00 PM 44.4288 -68.5311 230° Southwest  Level Estimated
Wed 08:12:00 PM 44.3507 -68.6609 230° Southwest  Level Estimated
Wed 08:13:00 PM 44.2725 -68.7903 230° Southwest  Level Estimated
Wed 08:14:00 PM 44.1941 -68.9194 230° Southwest  Level Estimated
Wed 08:15:00 PM 44.1156 -69.0482 230° Southwest  Level Estimated
Wed 08:16:00 PM 44.0370 -69.1766 230° Southwest  Level Estimated
Wed 08:17:00 PM 43.9582 -69.3047 230° Southwest  Level Estimated
Wed 08:18:00 PM 43.8792 -69.4324 229° Southwest  Level Estimated
Wed 08:19:00 PM 43.8002 -69.5598 229° Southwest  Level Estimated
Wed 08:20:00 PM 43.7209 -69.6869 229° Southwest  Level Estimated
Wed 08:21:00 PM 43.6416 -69.8136 229° Southwest  Level Estimated
Wed 08:22:00 PM 43.5621 -69.9400 229° Southwest  Level Estimated
Wed 08:23:00 PM 43.4824 -70.0661 229° Southwest  Level Estimated
Wed 08:24:00 PM 43.4026 -70.1918 229° Southwest  Level Estimated
Wed 08:25:00 PM 43.3227 -70.3172 229° Southwest  Level Estimated
Wed 08:26:00 PM 43.2427 -70.4423 229° Southwest  Level Estimated
Wed 08:27:00 PM 43.1625 -70.5670 229° Southwest  Level Estimated
Wed 08:28:00 PM 43.0821 -70.6914 229° Southwest  Level Estimated
Wed 08:29:00 PM 43.0017 -70.8155 228° Southwest  Level Estimated
Wed 08:30:00 PM 42.9211 -70.9392 228° Southwest  Level Estimated
Wed 08:31:00 PM 42.8404 -71.0627 228° Southwest  Level Estimated
Wed 08:32:00 PM 42.7595 -71.1858 228° Southwest  Level Estimated
Wed 08:33:00 PM 42.6785 -71.3086 228° Southwest  Level Estimated
Wed 08:34:00 PM 42.5974 -71.4311 228° Southwest  Level Estimated
Wed 08:35:00 PM 42.5161 -71.5532 228° Southwest  Level Estimated
Wed 08:36:00 PM 42.4347 -71.6750 228° Southwest  Level Estimated
Wed 08:37:00 PM 42.3532 -71.7966 228° Southwest  Level Estimated
Wed 08:38:00 PM 42.2716 -71.9178 228° Southwest  Level Estimated
Wed 08:39:00 PM 42.1898 -72.0387 228° Southwest  Level Estimated
Wed 08:40:00 PM 42.1079 -72.1592 228° Southwest  Level Estimated
Wed 08:41:00 PM 42.0259 -72.2795 227° Southwest  Level Estimated
Wed 08:42:00 PM 41.9438 -72.3995 227° Southwest  Level Estimated
Wed 08:43:00 PM 41.8615 -72.5191 227° Southwest  Level Estimated
Wed 08:44:00 PM 41.7791 -72.6385 227° Southwest  Level Estimated
Wed 08:45:00 PM 41.6966 -72.7575 227° Southwest  Level Estimated
Wed 08:46:00 PM 41.6140 -72.8762 227° Southwest  Level Estimated
Wed 08:47:00 PM 41.5312 -72.9946 227° Southwest  Level Estimated
Wed 08:48:00 PM 41.4483 -73.1128 227° Southwest  Level Estimated
Wed 08:49:00 PM 41.3653 -73.2306 227° Southwest  Level Estimated
Wed 08:50:00 PM 41.2822 -73.3481 227° Southwest  Level Estimated
Wed 08:51:00 PM 41.1990 -73.4653 227° Southwest  Level Estimated
Wed 08:52:00 PM 41.1156 -73.5822 227° Southwest  Level Estimated
Wed 08:53:00 PM 41.0321 -73.6989 227° Southwest  Level Estimated
Wed 08:54:00 PM 40.9485 -73.8152 226° Southwest  Level Estimated
Wed 08:55:00 PM 40.8648 -73.9312 226° Southwest  Level Estimated
Wed 08:56:00 PM 40.7810 -74.0470 226° Southwest  Level Estimated
Wed 08:57:00 PM 40.6970 -74.1624 226° Southwest  Level Estimated
Wed 08:58:00 PM 40.6925 -74.1687 226° Southwest  Level Estimated
Wed 08:59:00 PM 40.6925 -74.1687 90° East  Level Estimated
Wed 09:00:00 PM 40.6925 -74.1687 90° East  Level Estimated
Wed 09:01:00 PM 40.6925 -74.1687 90° East  Level Estimated
Wed 09:02:00 PM 40.6925 -74.1687 90° East  Level Estimated
Wed 09:03:00 PM 40.6925 -74.1687 90° East  Level Estimated
Wed 09:04:00 PM 40.6925 -74.1687 90° East  Level Estimated
Wed 09:05:00 PM 40.6925 -74.1687 90° East  Level Estimated
Wed 09:06:00 PM 40.6925 -74.1687 90° East  Level Estimated
Wed 09:07:00 PM 40.6925 -74.1687 90° East  Level Estimated
Wed 09:08:00 PM 40.6925 -74.1687 90° East  Level Estimated
Wed 09:09:00 PM 40.6925 -74.1687 90° East  Level Estimated
Wed 09:10:00 PM 40.6925 -74.1687 90° East  Level Estimated
Wed 09:11:00 PM 40.6925 -74.1687 90° East  Level Estimated
Wed 09:12:00 PM 40.6925 -74.1687 90° East  Level Estimated
Wed 09:13:00 PM 40.6925 -74.1687 90° East  Level Estimated

Login

Don't have an account? Register now (free) for customized features, flight alerts, and more!